Perryton, Texas
Current Conditions -  °F | °C
As of 2:55 PM on Tuesday 21 Oct 2014 (Local Time) from KPYX Reporting Station
Broken Clouds Broken Clouds  
Wind Chill: 78°   Ceiling: 6500
Heat Index: 78°   Visibility: 10mi
Dew Point: 51°   Wind: 14mph
Humidity: 38%   Direction: 170°S
Pressure: 30.04"   Gusts: NA
Location:  36.4°N, 100.8°W
Report Text: KPYX 211955Z AUTO 17012KT 10SM SCT055 BKN065 25/10 A3004 RMK AO2 T02540103
Loading
Personal Weather Stations






























Interactive Weather Map
Tropical Storm Tracking
New forecast layout! Learn more

10-Day Weather Forecast

Advertisements
Track Severe Weather on mobile